sensor_id;sensor_type;location;lat;lon;timestamp;P1;durP1;ratioP1;P2;durP2;ratioP2
17935;SDS011;9093;52.062;4.508;2023-02-28T00:02:34;0.80;;;0.80;;
17935;SDS011;9093;52.062;4.508;2023-02-28T00:05:16;1.60;;;1.10;;
17935;SDS011;9093;52.062;4.508;2023-02-28T00:07:58;9.23;;;1.63;;
17935;SDS011;9093;52.062;4.508;2023-02-28T00:10:38;2.00;;;1.40;;
17935;SDS011;9093;52.062;4.508;2023-02-28T00:13:18;2.70;;;1.40;;
17935;SDS011;9093;52.062;4.508;2023-02-28T00:16:03;1.80;;;1.45;;
17935;SDS011;9093;52.062;4.508;2023-02-28T00:18:45;1.70;;;1.30;;
17935;SDS011;9093;52.062;4.508;2023-02-28T00:21:27;2.10;;;1.48;;
17935;SDS011;9093;52.062;4.508;2023-02-28T00:24:08;2.65;;;1.52;;
17935;SDS011;9093;52.062;4.508;2023-02-28T00:26:48;3.25;;;1.83;;
17935;SDS011;9093;52.062;4.508;2023-02-28T00:29:28;3.92;;;1.67;;
17935;SDS011;9093;52.062;4.508;2023-02-28T00:32:08;1.92;;;1.42;;
17935;SDS011;9093;52.062;4.508;2023-02-28T00:34:49;2.38;;;1.33;;
17935;SDS011;9093;52.062;4.508;2023-02-28T00:37:29;10.32;;;1.85;;
17935;SDS011;9093;52.062;4.508;2023-02-28T00:40:10;6.78;;;2.10;;
17935;SDS011;9093;52.062;4.508;2023-02-28T00:42:51;2.60;;;1.75;;
17935;SDS011;9093;52.062;4.508;2023-02-28T00:45:32;2.05;;;1.30;;
17935;SDS011;9093;52.062;4.508;2023-02-28T00:48:12;4.25;;;1.58;;
17935;SDS011;9093;52.062;4.508;2023-02-28T00:50:52;5.75;;;1.95;;
17935;SDS011;9093;52.062;4.508;2023-02-28T00:53:33;2.25;;;1.42;;
17935;SDS011;9093;52.062;4.508;2023-02-28T00:56:13;1.88;;;1.15;;
17935;SDS011;9093;52.062;4.508;2023-02-28T00:58:53;9.38;;;2.10;;
17935;SDS011;9093;52.062;4.508;2023-02-28T01:01:34;2.08;;;1.45;;
17935;SDS011;9093;52.062;4.508;2023-02-28T01:04:15;2.72;;;1.55;;
17935;SDS011;9093;52.062;4.508;2023-02-28T01:06:55;3.85;;;1.58;;
17935;SDS011;9093;52.062;4.508;2023-02-28T01:09:36;2.13;;;1.30;;
17935;SDS011;9093;52.062;4.508;2023-02-28T01:12:16;2.58;;;1.48;;
17935;SDS011;9093;52.062;4.508;2023-02-28T01:14:56;3.55;;;1.85;;
17935;SDS011;9093;52.062;4.508;2023-02-28T01:17:37;3.05;;;1.95;;
17935;SDS011;9093;52.062;4.508;2023-02-28T01:20:18;4.97;;;1.77;;
17935;SDS011;9093;52.062;4.508;2023-02-28T01:22:58;4.32;;;1.73;;
17935;SDS011;9093;52.062;4.508;2023-02-28T01:25:38;1.80;;;1.52;;
17935;SDS011;9093;52.062;4.508;2023-02-28T01:28:19;6.97;;;1.67;;
17935;SDS011;9093;52.062;4.508;2023-02-28T01:31:00;3.00;;;1.80;;
17935;SDS011;9093;52.062;4.508;2023-02-28T01:33:41;3.08;;;1.63;;
17935;SDS011;9093;52.062;4.508;2023-02-28T01:36:22;4.07;;;1.88;;
17935;SDS011;9093;52.062;4.508;2023-02-28T01:41:44;2.37;;;1.27;;
17935;SDS011;9093;52.062;4.508;2023-02-28T01:47:42;2.53;;;1.70;;
17935;SDS011;9093;52.062;4.508;2023-02-28T01:50:25;3.42;;;1.98;;
17935;SDS011;9093;52.062;4.508;2023-02-28T01:53:09;7.35;;;1.80;;
17935;SDS011;9093;52.062;4.508;2023-02-28T01:55:53;3.45;;;1.60;;
17935;SDS011;9093;52.062;4.508;2023-02-28T01:58:34;1.98;;;1.50;;
17935;SDS011;9093;52.062;4.508;2023-02-28T02:01:16;7.87;;;2.77;;
17935;SDS011;9093;52.062;4.508;2023-02-28T02:04:01;4.00;;;1.83;;
17935;SDS011;9093;52.062;4.508;2023-02-28T02:06:44;4.80;;;2.13;;
17935;SDS011;9093;52.062;4.508;2023-02-28T02:09:27;6.03;;;2.40;;
17935;SDS011;9093;52.062;4.508;2023-02-28T02:12:12;3.08;;;1.77;;
17935;SDS011;9093;52.062;4.508;2023-02-28T02:15:26;5.88;;;1.70;;
17935;SDS011;9093;52.062;4.508;2023-02-28T02:36:25;5.80;;;1.38;;
17935;SDS011;9093;52.062;4.508;2023-02-28T02:39:15;2.70;;;1.50;;
17935;SDS011;9093;52.062;4.508;2023-02-28T02:42:16;3.95;;;2.15;;
17935;SDS011;9093;52.062;4.508;2023-02-28T02:45:32;8.27;;;3.00;;
17935;SDS011;9093;52.062;4.508;2023-02-28T02:48:18;9.98;;;2.08;;
17935;SDS011;9093;52.062;4.508;2023-02-28T02:51:02;4.15;;;2.13;;
17935;SDS011;9093;52.062;4.508;2023-02-28T02:53:55;4.05;;;2.00;;
17935;SDS011;9093;52.062;4.508;2023-02-28T02:56:43;5.95;;;2.20;;
17935;SDS011;9093;52.062;4.508;2023-02-28T02:59:26;6.57;;;2.30;;
17935;SDS011;9093;52.062;4.508;2023-02-28T03:02:10;12.32;;;2.22;;
17935;SDS011;9093;52.062;4.508;2023-02-28T03:04:56;2.58;;;1.80;;
17935;SDS011;9093;52.062;4.508;2023-02-28T03:07:42;2.95;;;1.77;;
17935;SDS011;9093;52.062;4.508;2023-02-28T03:11:05;3.35;;;2.05;;
17935;SDS011;9093;52.062;4.508;2023-02-28T03:19:25;6.20;;;2.17;;
17935;SDS011;9093;52.062;4.508;2023-02-28T03:25:21;13.57;;;2.97;;
17935;SDS011;9093;52.062;4.508;2023-02-28T03:34:17;3.42;;;1.92;;
17935;SDS011;9093;52.062;4.508;2023-02-28T03:37:04;7.93;;;1.93;;
17935;SDS011;9093;52.062;4.508;2023-02-28T03:40:03;3.63;;;2.15;;
17935;SDS011;9093;52.062;4.508;2023-02-28T03:42:50;5.90;;;1.95;;
17935;SDS011;9093;52.062;4.508;2023-02-28T03:45:37;2.97;;;2.08;;
17935;SDS011;9093;52.062;4.508;2023-02-28T03:51:01;4.07;;;2.17;;
17935;SDS011;9093;52.062;4.508;2023-02-28T03:53:46;3.38;;;2.13;;
17935;SDS011;9093;52.062;4.508;2023-02-28T03:56:39;6.60;;;2.88;;
17935;SDS011;9093;52.062;4.508;2023-02-28T03:59:53;5.43;;;2.58;;
17935;SDS011;9093;52.062;4.508;2023-02-28T04:02:39;4.40;;;2.65;;
17935;SDS011;9093;52.062;4.508;2023-02-28T04:05:20;3.60;;;2.20;;
17935;SDS011;9093;52.062;4.508;2023-02-28T04:08:06;5.55;;;2.70;;
17935;SDS011;9093;52.062;4.508;2023-02-28T04:10:55;17.48;;;2.50;;
17935;SDS011;9093;52.062;4.508;2023-02-28T04:13:40;7.22;;;2.03;;
17935;SDS011;9093;52.062;4.508;2023-02-28T04:16:21;3.88;;;2.35;;
17935;SDS011;9093;52.062;4.508;2023-02-28T04:19:02;4.78;;;2.38;;
17935;SDS011;9093;52.062;4.508;2023-02-28T04:21:45;3.50;;;2.67;;
17935;SDS011;9093;52.062;4.508;2023-02-28T04:24:28;4.18;;;2.47;;
17935;SDS011;9093;52.062;4.508;2023-02-28T04:27:09;6.07;;;2.25;;
17935;SDS011;9093;52.062;4.508;2023-02-28T04:29:49;4.75;;;2.50;;
17935;SDS011;9093;52.062;4.508;2023-02-28T04:32:30;6.45;;;2.85;;
17935;SDS011;9093;52.062;4.508;2023-02-28T04:35:10;3.97;;;2.45;;
17935;SDS011;9093;52.062;4.508;2023-02-28T04:37:50;3.63;;;2.10;;
17935;SDS011;9093;52.062;4.508;2023-02-28T04:40:31;7.63;;;2.80;;
17935;SDS011;9093;52.062;4.508;2023-02-28T04:43:11;6.38;;;2.95;;
17935;SDS011;9093;52.062;4.508;2023-02-28T04:45:51;11.00;;;2.92;;
17935;SDS011;9093;52.062;4.508;2023-02-28T04:48:32;6.82;;;2.60;;
17935;SDS011;9093;52.062;4.508;2023-02-28T04:53:56;5.57;;;2.28;;
17935;SDS011;9093;52.062;4.508;2023-02-28T04:56:36;13.13;;;2.88;;
17935;SDS011;9093;52.062;4.508;2023-02-28T04:59:17;5.03;;;2.60;;
17935;SDS011;9093;52.062;4.508;2023-02-28T05:01:57;5.25;;;2.45;;
17935;SDS011;9093;52.062;4.508;2023-02-28T05:04:37;13.02;;;2.85;;
17935;SDS011;9093;52.062;4.508;2023-02-28T05:07:18;5.00;;;2.78;;
17935;SDS011;9093;52.062;4.508;2023-02-28T05:09:58;13.85;;;3.15;;
17935;SDS011;9093;52.062;4.508;2023-02-28T05:12:38;4.18;;;2.45;;
17935;SDS011;9093;52.062;4.508;2023-02-28T05:15:19;6.53;;;3.45;;
17935;SDS011;9093;52.062;4.508;2023-02-28T05:17:59;5.43;;;3.17;;
17935;SDS011;9093;52.062;4.508;2023-02-28T05:20:39;5.38;;;2.85;;
17935;SDS011;9093;52.062;4.508;2023-02-28T05:23:20;5.57;;;2.90;;
17935;SDS011;9093;52.062;4.508;2023-02-28T05:26:02;10.65;;;2.67;;
17935;SDS011;9093;52.062;4.508;2023-02-28T05:28:43;10.10;;;2.92;;
17935;SDS011;9093;52.062;4.508;2023-02-28T05:31:23;4.47;;;2.53;;
17935;SDS011;9093;52.062;4.508;2023-02-28T05:34:03;4.57;;;2.65;;
17935;SDS011;9093;52.062;4.508;2023-02-28T05:36:44;3.88;;;2.35;;
17935;SDS011;9093;52.062;4.508;2023-02-28T05:39:24;7.38;;;2.85;;
17935;SDS011;9093;52.062;4.508;2023-02-28T05:42:05;4.65;;;2.13;;
17935;SDS011;9093;52.062;4.508;2023-02-28T05:44:46;7.57;;;3.20;;
17935;SDS011;9093;52.062;4.508;2023-02-28T05:47:26;5.03;;;2.72;;
17935;SDS011;9093;52.062;4.508;2023-02-28T05:50:07;9.65;;;2.22;;
17935;SDS011;9093;52.062;4.508;2023-02-28T05:52:52;3.08;;;2.08;;
17935;SDS011;9093;52.062;4.508;2023-02-28T05:55:32;3.25;;;2.45;;
17935;SDS011;9093;52.062;4.508;2023-02-28T05:58:13;5.10;;;2.78;;
17935;SDS011;9093;52.062;4.508;2023-02-28T06:00:53;7.82;;;2.30;;
17935;SDS011;9093;52.062;4.508;2023-02-28T06:03:33;13.60;;;2.92;;
17935;SDS011;9093;52.062;4.508;2023-02-28T06:06:14;6.00;;;2.95;;
17935;SDS011;9093;52.062;4.508;2023-02-28T06:08:54;7.03;;;3.05;;
17935;SDS011;9093;52.062;4.508;2023-02-28T06:11:34;3.53;;;2.50;;
17935;SDS011;9093;52.062;4.508;2023-02-28T06:14:15;8.70;;;3.03;;
17935;SDS011;9093;52.062;4.508;2023-02-28T06:16:57;6.00;;;2.97;;
17935;SDS011;9093;52.062;4.508;2023-02-28T06:19:39;10.23;;;2.88;;
17935;SDS011;9093;52.062;4.508;2023-02-28T06:22:21;5.63;;;3.00;;
17935;SDS011;9093;52.062;4.508;2023-02-28T06:25:02;13.70;;;3.25;;
17935;SDS011;9093;52.062;4.508;2023-02-28T06:27:43;10.82;;;2.88;;
17935;SDS011;9093;52.062;4.508;2023-02-28T06:30:24;5.45;;;2.83;;
17935;SDS011;9093;52.062;4.508;2023-02-28T06:33:06;6.30;;;3.10;;
17935;SDS011;9093;52.062;4.508;2023-02-28T06:35:47;5.60;;;3.05;;
17935;SDS011;9093;52.062;4.508;2023-02-28T06:38:30;9.48;;;2.92;;
17935;SDS011;9093;52.062;4.508;2023-02-28T06:41:11;5.55;;;3.55;;
17935;SDS011;9093;52.062;4.508;2023-02-28T06:43:52;7.13;;;3.28;;
17935;SDS011;9093;52.062;4.508;2023-02-28T06:46:33;8.27;;;2.88;;
17935;SDS011;9093;52.062;4.508;2023-02-28T06:49:14;6.25;;;2.97;;
17935;SDS011;9093;52.062;4.508;2023-02-28T06:51:55;4.45;;;2.53;;
17935;SDS011;9093;52.062;4.508;2023-02-28T06:54:36;4.07;;;2.38;;
17935;SDS011;9093;52.062;4.508;2023-02-28T06:57:17;3.25;;;2.10;;
17935;SDS011;9093;52.062;4.508;2023-02-28T07:00:02;3.95;;;1.95;;
17935;SDS011;9093;52.062;4.508;2023-02-28T07:02:47;5.63;;;2.35;;
17935;SDS011;9093;52.062;4.508;2023-02-28T07:05:27;8.88;;;2.10;;
17935;SDS011;9093;52.062;4.508;2023-02-28T07:08:08;4.20;;;1.75;;
17935;SDS011;9093;52.062;4.508;2023-02-28T07:10:51;2.33;;;1.88;;
17935;SDS011;9093;52.062;4.508;2023-02-28T07:13:32;2.22;;;1.67;;
17935;SDS011;9093;52.062;4.508;2023-02-28T07:16:12;3.63;;;1.95;;
17935;SDS011;9093;52.062;4.508;2023-02-28T07:18:53;2.15;;;1.67;;
17935;SDS011;9093;52.062;4.508;2023-02-28T07:21:34;4.35;;;2.65;;
17935;SDS011;9093;52.062;4.508;2023-02-28T07:24:15;5.07;;;2.08;;
17935;SDS011;9093;52.062;4.508;2023-02-28T07:29:39;10.30;;;2.90;;
17935;SDS011;9093;52.062;4.508;2023-02-28T07:32:19;3.00;;;2.15;;
17935;SDS011;9093;52.062;4.508;2023-02-28T07:34:59;4.30;;;2.10;;
17935;SDS011;9093;52.062;4.508;2023-02-28T07:37:40;6.90;;;1.98;;
17935;SDS011;9093;52.062;4.508;2023-02-28T07:40:21;6.15;;;2.03;;
17935;SDS011;9093;52.062;4.508;2023-02-28T07:43:02;4.93;;;2.10;;
17935;SDS011;9093;52.062;4.508;2023-02-28T07:45:43;11.05;;;3.20;;
17935;SDS011;9093;52.062;4.508;2023-02-28T07:48:23;3.03;;;1.92;;
17935;SDS011;9093;52.062;4.508;2023-02-28T07:51:04;2.75;;;2.20;;
17935;SDS011;9093;52.062;4.508;2023-02-28T07:53:44;14.82;;;2.65;;
17935;SDS011;9093;52.062;4.508;2023-02-28T07:56:24;5.40;;;2.35;;
17935;SDS011;9093;52.062;4.508;2023-02-28T07:59:05;2.80;;;2.17;;
17935;SDS011;9093;52.062;4.508;2023-02-28T08:01:45;2.65;;;2.00;;
17935;SDS011;9093;52.062;4.508;2023-02-28T08:04:26;3.33;;;2.08;;
17935;SDS011;9093;52.062;4.508;2023-02-28T08:07:06;3.92;;;2.55;;
17935;SDS011;9093;52.062;4.508;2023-02-28T08:09:47;3.78;;;2.28;;
17935;SDS011;9093;52.062;4.508;2023-02-28T08:12:28;5.93;;;2.65;;
17935;SDS011;9093;52.062;4.508;2023-02-28T08:15:08;3.65;;;2.45;;
17935;SDS011;9093;52.062;4.508;2023-02-28T08:17:49;4.43;;;2.50;;
17935;SDS011;9093;52.062;4.508;2023-02-28T08:20:29;4.43;;;2.40;;
17935;SDS011;9093;52.062;4.508;2023-02-28T08:23:10;3.72;;;2.30;;
17935;SDS011;9093;52.062;4.508;2023-02-28T08:25:55;3.92;;;2.42;;
17935;SDS011;9093;52.062;4.508;2023-02-28T08:28:36;2.10;;;1.90;;
17935;SDS011;9093;52.062;4.508;2023-02-28T08:31:16;4.32;;;2.85;;
17935;SDS011;9093;52.062;4.508;2023-02-28T08:33:57;4.35;;;1.92;;
17935;SDS011;9093;52.062;4.508;2023-02-28T08:36:40;3.55;;;2.45;;
17935;SDS011;9093;52.062;4.508;2023-02-28T08:39:20;3.75;;;2.72;;
17935;SDS011;9093;52.062;4.508;2023-02-28T08:42:01;4.35;;;2.95;;
17935;SDS011;9093;52.062;4.508;2023-02-28T08:44:42;5.47;;;3.08;;
17935;SDS011;9093;52.062;4.508;2023-02-28T08:47:22;6.05;;;3.20;;
17935;SDS011;9093;52.062;4.508;2023-02-28T08:50:03;3.50;;;2.58;;
17935;SDS011;9093;52.062;4.508;2023-02-28T08:52:44;6.75;;;3.15;;
17935;SDS011;9093;52.062;4.508;2023-02-28T08:55:25;4.15;;;3.22;;
17935;SDS011;9093;52.062;4.508;2023-02-28T08:58:05;3.40;;;2.75;;
17935;SDS011;9093;52.062;4.508;2023-02-28T09:00:45;7.93;;;3.75;;
17935;SDS011;9093;52.062;4.508;2023-02-28T09:03:26;11.70;;;3.97;;
17935;SDS011;9093;52.062;4.508;2023-02-28T09:06:07;6.63;;;3.20;;
17935;SDS011;9093;52.062;4.508;2023-02-28T09:08:49;6.10;;;3.90;;
17935;SDS011;9093;52.062;4.508;2023-02-28T09:11:30;7.28;;;3.90;;
17935;SDS011;9093;52.062;4.508;2023-02-28T09:14:10;8.25;;;3.75;;
17935;SDS011;9093;52.062;4.508;2023-02-28T09:16:50;7.53;;;3.28;;
17935;SDS011;9093;52.062;4.508;2023-02-28T09:19:31;3.67;;;2.80;;
17935;SDS011;9093;52.062;4.508;2023-02-28T09:22:11;5.47;;;3.35;;
17935;SDS011;9093;52.062;4.508;2023-02-28T09:24:51;6.07;;;2.67;;
17935;SDS011;9093;52.062;4.508;2023-02-28T09:27:31;6.25;;;3.25;;
17935;SDS011;9093;52.062;4.508;2023-02-28T09:30:12;5.75;;;3.13;;
17935;SDS011;9093;52.062;4.508;2023-02-28T09:32:53;5.15;;;3.13;;
17935;SDS011;9093;52.062;4.508;2023-02-28T09:35:33;5.85;;;3.33;;
17935;SDS011;9093;52.062;4.508;2023-02-28T09:38:13;6.95;;;3.22;;
17935;SDS011;9093;52.062;4.508;2023-02-28T09:41:01;5.90;;;3.00;;
17935;SDS011;9093;52.062;4.508;2023-02-28T09:43:47;6.22;;;3.30;;
17935;SDS011;9093;52.062;4.508;2023-02-28T09:46:36;5.65;;;2.95;;
17935;SDS011;9093;52.062;4.508;2023-02-28T09:49:22;5.82;;;3.30;;
17935;SDS011;9093;52.062;4.508;2023-02-28T09:52:07;4.88;;;3.05;;
17935;SDS011;9093;52.062;4.508;2023-02-28T09:54:51;8.80;;;3.50;;
17935;SDS011;9093;52.062;4.508;2023-02-28T09:57:33;9.38;;;2.75;;
17935;SDS011;9093;52.062;4.508;2023-02-28T10:06:22;4.20;;;2.38;;
17935;SDS011;9093;52.062;4.508;2023-02-28T10:09:13;6.80;;;2.67;;
17935;SDS011;9093;52.062;4.508;2023-02-28T10:12:03;4.07;;;2.20;;
17935;SDS011;9093;52.062;4.508;2023-02-28T10:14:45;11.68;;;3.17;;
17935;SDS011;9093;52.062;4.508;2023-02-28T10:17:39;5.57;;;2.45;;
17935;SDS011;9093;52.062;4.508;2023-02-28T10:20:23;5.75;;;2.80;;
17935;SDS011;9093;52.062;4.508;2023-02-28T10:26:09;6.63;;;3.30;;
17935;SDS011;9093;52.062;4.508;2023-02-28T10:28:52;8.07;;;2.90;;
17935;SDS011;9093;52.062;4.508;2023-02-28T10:31:33;5.00;;;2.90;;
17935;SDS011;9093;52.062;4.508;2023-02-28T10:34:13;3.85;;;2.75;;
17935;SDS011;9093;52.062;4.508;2023-02-28T10:36:54;6.38;;;2.92;;
17935;SDS011;9093;52.062;4.508;2023-02-28T10:42:21;4.38;;;2.40;;
17935;SDS011;9093;52.062;4.508;2023-02-28T10:45:15;5.78;;;2.75;;
17935;SDS011;9093;52.062;4.508;2023-02-28T10:47:58;4.07;;;2.70;;
17935;SDS011;9093;52.062;4.508;2023-02-28T10:53:34;13.95;;;2.65;;
17935;SDS011;9093;52.062;4.508;2023-02-28T10:56:19;3.28;;;2.03;;
17935;SDS011;9093;52.062;4.508;2023-02-28T11:01:47;2.50;;;1.73;;
17935;SDS011;9093;52.062;4.508;2023-02-28T11:04:34;10.45;;;2.05;;
17935;SDS011;9093;52.062;4.508;2023-02-28T11:07:19;3.15;;;1.88;;
17935;SDS011;9093;52.062;4.508;2023-02-28T11:10:01;2.72;;;1.70;;
17935;SDS011;9093;52.062;4.508;2023-02-28T11:12:44;2.67;;;1.70;;
17935;SDS011;9093;52.062;4.508;2023-02-28T11:15:26;3.85;;;1.83;;
17935;SDS011;9093;52.062;4.508;2023-02-28T11:21:22;2.20;;;1.50;;
17935;SDS011;9093;52.062;4.508;2023-02-28T11:30:49;2.45;;;1.65;;
17935;SDS011;9093;52.062;4.508;2023-02-28T11:33:42;2.47;;;1.85;;
17935;SDS011;9093;52.062;4.508;2023-02-28T11:36:29;5.00;;;1.60;;
17935;SDS011;9093;52.062;4.508;2023-02-28T11:39:11;2.38;;;1.60;;
17935;SDS011;9093;52.062;4.508;2023-02-28T12:03:31;2.85;;;1.58;;
17935;SDS011;9093;52.062;4.508;2023-02-28T12:11:56;2.23;;;1.50;;
17935;SDS011;9093;52.062;4.508;2023-02-28T12:14:59;2.03;;;1.23;;
17935;SDS011;9093;52.062;4.508;2023-02-28T12:23:42;3.88;;;1.77;;
17935;SDS011;9093;52.062;4.508;2023-02-28T12:29:25;2.38;;;1.70;;
17935;SDS011;9093;52.062;4.508;2023-02-28T12:32:20;3.50;;;1.42;;
17935;SDS011;9093;52.062;4.508;2023-02-28T12:38:10;2.33;;;1.40;;
17935;SDS011;9093;52.062;4.508;2023-02-28T12:41:03;1.48;;;1.20;;
17935;SDS011;9093;52.062;4.508;2023-02-28T12:44:04;2.13;;;1.52;;
17935;SDS011;9093;52.062;4.508;2023-02-28T12:46:51;2.47;;;1.38;;
17935;SDS011;9093;52.062;4.508;2023-02-28T12:49:52;2.58;;;1.40;;
17935;SDS011;9093;52.062;4.508;2023-02-28T12:58:51;1.52;;;1.17;;
17935;SDS011;9093;52.062;4.508;2023-02-28T13:10:04;6.13;;;1.48;;
17935;SDS011;9093;52.062;4.508;2023-02-28T13:12:48;2.35;;;1.50;;
17935;SDS011;9093;52.062;4.508;2023-02-28T13:15:33;2.30;;;1.35;;
17935;SDS011;9093;52.062;4.508;2023-02-28T13:18:31;1.67;;;1.40;;
17935;SDS011;9093;52.062;4.508;2023-02-28T13:21:23;2.20;;;1.40;;
17935;SDS011;9093;52.062;4.508;2023-02-28T13:24:03;4.95;;;1.63;;
17935;SDS011;9093;52.062;4.508;2023-02-28T13:29:32;2.72;;;1.48;;
17935;SDS011;9093;52.062;4.508;2023-02-28T13:37:50;1.55;;;1.23;;
17935;SDS011;9093;52.062;4.508;2023-02-28T13:40:32;2.00;;;1.60;;
17935;SDS011;9093;52.062;4.508;2023-02-28T13:43:17;2.25;;;1.52;;
17935;SDS011;9093;52.062;4.508;2023-02-28T13:46:06;2.85;;;1.50;;
17935;SDS011;9093;52.062;4.508;2023-02-28T13:48:51;3.67;;;0.98;;
17935;SDS011;9093;52.062;4.508;2023-02-28T13:51:42;2.67;;;1.50;;
17935;SDS011;9093;52.062;4.508;2023-02-28T14:06:36;1.92;;;1.27;;
17935;SDS011;9093;52.062;4.508;2023-02-28T14:09:23;2.53;;;1.67;;
17935;SDS011;9093;52.062;4.508;2023-02-28T14:18:34;5.28;;;1.67;;
17935;SDS011;9093;52.062;4.508;2023-02-28T14:21:24;4.00;;;1.42;;
17935;SDS011;9093;52.062;4.508;2023-02-28T14:30:07;2.25;;;1.42;;
17935;SDS011;9093;52.062;4.508;2023-02-28T14:36:21;2.72;;;1.38;;
17935;SDS011;9093;52.062;4.508;2023-02-28T14:39:12;2.25;;;1.55;;
17935;SDS011;9093;52.062;4.508;2023-02-28T14:41:55;2.50;;;1.30;;
17935;SDS011;9093;52.062;4.508;2023-02-28T14:44:36;2.90;;;1.70;;
17935;SDS011;9093;52.062;4.508;2023-02-28T14:47:16;1.63;;;1.25;;
17935;SDS011;9093;52.062;4.508;2023-02-28T14:50:00;1.52;;;1.20;;
17935;SDS011;9093;52.062;4.508;2023-02-28T14:52:43;1.73;;;1.13;;
17935;SDS011;9093;52.062;4.508;2023-02-28T14:55:26;1.20;;;1.10;;
17935;SDS011;9093;52.062;4.508;2023-02-28T14:58:17;1.50;;;1.20;;
17935;SDS011;9093;52.062;4.508;2023-02-28T15:01:10;3.03;;;1.33;;
17935;SDS011;9093;52.062;4.508;2023-02-28T15:04:04;1.88;;;1.50;;
17935;SDS011;9093;52.062;4.508;2023-02-28T15:06:46;2.05;;;1.30;;
17935;SDS011;9093;52.062;4.508;2023-02-28T15:09:26;2.92;;;1.17;;
17935;SDS011;9093;52.062;4.508;2023-02-28T15:12:06;2.05;;;1.38;;
17935;SDS011;9093;52.062;4.508;2023-02-28T15:14:47;2.67;;;1.50;;
17935;SDS011;9093;52.062;4.508;2023-02-28T15:17:27;1.77;;;1.30;;
17935;SDS011;9093;52.062;4.508;2023-02-28T15:20:11;1.90;;;1.30;;
17935;SDS011;9093;52.062;4.508;2023-02-28T15:22:53;3.15;;;1.50;;
17935;SDS011;9093;52.062;4.508;2023-02-28T15:28:20;3.20;;;1.10;;
17935;SDS011;9093;52.062;4.508;2023-02-28T15:31:25;3.15;;;1.23;;
17935;SDS011;9093;52.062;4.508;2023-02-28T15:34:22;3.83;;;1.27;;
17935;SDS011;9093;52.062;4.508;2023-02-28T15:42:58;1.25;;;1.10;;
17935;SDS011;9093;52.062;4.508;2023-02-28T15:48:29;2.85;;;1.40;;
17935;SDS011;9093;52.062;4.508;2023-02-28T15:51:17;2.27;;;1.60;;
17935;SDS011;9093;52.062;4.508;2023-02-28T15:54:07;4.93;;;1.15;;
17935;SDS011;9093;52.062;4.508;2023-02-28T15:56:51;1.85;;;1.15;;
17935;SDS011;9093;52.062;4.508;2023-02-28T15:59:33;1.60;;;1.10;;
17935;SDS011;9093;52.062;4.508;2023-02-28T16:02:17;2.08;;;1.20;;
17935;SDS011;9093;52.062;4.508;2023-02-28T16:07:48;1.88;;;1.42;;
17935;SDS011;9093;52.062;4.508;2023-02-28T16:10:29;4.10;;;1.20;;
17935;SDS011;9093;52.062;4.508;2023-02-28T16:13:11;2.15;;;1.38;;
17935;SDS011;9093;52.062;4.508;2023-02-28T16:15:55;4.88;;;1.75;;
17935;SDS011;9093;52.062;4.508;2023-02-28T16:18:35;1.95;;;1.45;;
17935;SDS011;9093;52.062;4.508;2023-02-28T16:21:15;2.25;;;1.63;;
17935;SDS011;9093;52.062;4.508;2023-02-28T16:23:56;3.42;;;1.60;;
17935;SDS011;9093;52.062;4.508;2023-02-28T16:26:36;3.35;;;1.58;;
17935;SDS011;9093;52.062;4.508;2023-02-28T16:29:29;2.42;;;1.52;;
17935;SDS011;9093;52.062;4.508;2023-02-28T16:32:12;2.30;;;1.60;;
17935;SDS011;9093;52.062;4.508;2023-02-28T16:34:55;3.00;;;2.05;;
17935;SDS011;9093;52.062;4.508;2023-02-28T16:37:35;3.40;;;1.60;;
17935;SDS011;9093;52.062;4.508;2023-02-28T16:40:16;6.05;;;1.77;;
17935;SDS011;9093;52.062;4.508;2023-02-28T16:43:00;3.75;;;1.80;;
17935;SDS011;9093;52.062;4.508;2023-02-28T16:45:43;2.50;;;1.45;;
17935;SDS011;9093;52.062;4.508;2023-02-28T16:48:24;3.90;;;1.83;;
17935;SDS011;9093;52.062;4.508;2023-02-28T16:51:05;2.97;;;1.63;;
17935;SDS011;9093;52.062;4.508;2023-02-28T16:53:45;3.50;;;1.85;;
17935;SDS011;9093;52.062;4.508;2023-02-28T16:56:25;2.55;;;1.50;;
17935;SDS011;9093;52.062;4.508;2023-02-28T16:59:07;2.22;;;1.55;;
17935;SDS011;9093;52.062;4.508;2023-02-28T17:01:48;2.50;;;1.55;;
17935;SDS011;9093;52.062;4.508;2023-02-28T17:04:29;3.00;;;1.52;;
17935;SDS011;9093;52.062;4.508;2023-02-28T17:07:14;3.05;;;1.80;;
17935;SDS011;9093;52.062;4.508;2023-02-28T17:09:56;2.17;;;1.50;;
17935;SDS011;9093;52.062;4.508;2023-02-28T17:12:36;4.38;;;1.67;;
17935;SDS011;9093;52.062;4.508;2023-02-28T17:15:18;3.90;;;1.63;;
17935;SDS011;9093;52.062;4.508;2023-02-28T17:17:59;2.78;;;1.60;;
17935;SDS011;9093;52.062;4.508;2023-02-28T17:20:39;2.58;;;1.67;;
17935;SDS011;9093;52.062;4.508;2023-02-28T17:23:22;1.80;;;1.20;;
17935;SDS011;9093;52.062;4.508;2023-02-28T17:26:02;2.45;;;1.77;;
17935;SDS011;9093;52.062;4.508;2023-02-28T17:28:45;7.00;;;2.03;;
17935;SDS011;9093;52.062;4.508;2023-02-28T17:31:27;2.97;;;1.77;;
17935;SDS011;9093;52.062;4.508;2023-02-28T17:34:07;4.47;;;2.17;;
17935;SDS011;9093;52.062;4.508;2023-02-28T17:36:49;2.85;;;2.10;;
17935;SDS011;9093;52.062;4.508;2023-02-28T17:39:31;6.38;;;2.10;;
17935;SDS011;9093;52.062;4.508;2023-02-28T17:42:11;4.72;;;2.10;;
17935;SDS011;9093;52.062;4.508;2023-02-28T17:44:52;4.25;;;1.90;;
17935;SDS011;9093;52.062;4.508;2023-02-28T17:47:32;2.47;;;1.70;;
17935;SDS011;9093;52.062;4.508;2023-02-28T17:50:14;3.63;;;2.17;;
17935;SDS011;9093;52.062;4.508;2023-02-28T17:52:55;1.83;;;1.45;;
17935;SDS011;9093;52.062;4.508;2023-02-28T17:55:36;5.57;;;2.42;;
17935;SDS011;9093;52.062;4.508;2023-02-28T17:58:16;5.65;;;2.53;;
17935;SDS011;9093;52.062;4.508;2023-02-28T18:00:58;3.30;;;2.58;;
17935;SDS011;9093;52.062;4.508;2023-02-28T18:03:39;9.23;;;2.63;;
17935;SDS011;9093;52.062;4.508;2023-02-28T18:06:31;3.92;;;2.35;;
17935;SDS011;9093;52.062;4.508;2023-02-28T18:09:17;3.85;;;2.03;;
17935;SDS011;9093;52.062;4.508;2023-02-28T18:12:01;3.63;;;2.17;;
17935;SDS011;9093;52.062;4.508;2023-02-28T18:14:41;5.45;;;2.47;;
17935;SDS011;9093;52.062;4.508;2023-02-28T18:17:22;3.65;;;2.17;;
17935;SDS011;9093;52.062;4.508;2023-02-28T18:20:03;10.63;;;2.28;;
17935;SDS011;9093;52.062;4.508;2023-02-28T18:22:44;4.60;;;2.22;;
17935;SDS011;9093;52.062;4.508;2023-02-28T18:25:25;3.22;;;1.80;;
17935;SDS011;9093;52.062;4.508;2023-02-28T18:28:05;4.05;;;1.98;;
17935;SDS011;9093;52.062;4.508;2023-02-28T18:30:46;5.50;;;2.28;;
17935;SDS011;9093;52.062;4.508;2023-02-28T18:33:26;6.93;;;2.47;;
17935;SDS011;9093;52.062;4.508;2023-02-28T18:36:07;6.53;;;2.40;;
17935;SDS011;9093;52.062;4.508;2023-02-28T18:38:48;4.97;;;2.97;;
17935;SDS011;9093;52.062;4.508;2023-02-28T18:41:29;4.03;;;2.53;;
17935;SDS011;9093;52.062;4.508;2023-02-28T18:44:09;5.45;;;2.53;;
17935;SDS011;9093;52.062;4.508;2023-02-28T18:46:50;2.97;;;1.95;;
17935;SDS011;9093;52.062;4.508;2023-02-28T18:49:30;4.13;;;2.38;;
17935;SDS011;9093;52.062;4.508;2023-02-28T18:52:13;3.22;;;2.00;;
17935;SDS011;9093;52.062;4.508;2023-02-28T18:54:53;4.15;;;2.40;;
17935;SDS011;9093;52.062;4.508;2023-02-28T18:57:33;5.75;;;3.22;;
17935;SDS011;9093;52.062;4.508;2023-02-28T19:00:14;5.45;;;2.90;;
17935;SDS011;9093;52.062;4.508;2023-02-28T19:02:57;5.30;;;3.45;;
17935;SDS011;9093;52.062;4.508;2023-02-28T19:05:37;7.20;;;3.20;;
17935;SDS011;9093;52.062;4.508;2023-02-28T19:08:17;5.53;;;3.22;;
17935;SDS011;9093;52.062;4.508;2023-02-28T19:10:58;5.15;;;3.35;;
17935;SDS011;9093;52.062;4.508;2023-02-28T19:13:38;7.70;;;3.28;;
17935;SDS011;9093;52.062;4.508;2023-02-28T19:16:19;3.92;;;2.45;;
17935;SDS011;9093;52.062;4.508;2023-02-28T19:19:01;6.28;;;3.55;;
17935;SDS011;9093;52.062;4.508;2023-02-28T19:21:42;5.93;;;3.25;;
17935;SDS011;9093;52.062;4.508;2023-02-28T19:24:22;6.50;;;3.40;;
17935;SDS011;9093;52.062;4.508;2023-02-28T19:27:02;4.88;;;3.30;;
17935;SDS011;9093;52.062;4.508;2023-02-28T19:29:43;7.78;;;4.03;;
17935;SDS011;9093;52.062;4.508;2023-02-28T19:32:24;6.07;;;3.17;;
17935;SDS011;9093;52.062;4.508;2023-02-28T19:35:05;11.18;;;3.95;;
17935;SDS011;9093;52.062;4.508;2023-02-28T19:37:45;8.75;;;3.28;;